Rejestracja

Wszystkie dane podawane są w czasie UTC za wyjątkiem miejsc gdzie jest jednoznacznie podane, że jest inaczej. Dane podawane w serwisie mają charakter informacyjny!!!
Informacje w sprawie dostępu do serwisu pod numerem tel. +48 261-828-138
Informacja dla żołnierzy i pracowników wojska: Prosimy o niezwłoczną zmianę adresu e-mail w profilu użytkownika na pocztę w domenie @ron.mil.pl

Aktualna Pogoda
 
Pogoda w Polsce
20°C Szczecin 17°C Suwałki 20°C Warszawa 22°C Poznan
22°C Opole 22°C Kraków 20°C Rzeszów
Więcej miast w Polsce

Pogoda w Europie
25°C Berlin 21°C Paryz 19°C Bruksela 17°C Oslo
24°C Praga 24°C Zagrzeb
Więcej miast w Europie

Metary wojskowe test
METAR EPBC 181000Z 27004KT CAVOK 20/09 Q1013=
METAR EPCE 181000Z 32004KT 270V350 9999 BKN056 18/11 Q1014 RMK 182 063 5/5=
METAR EPDA 181000Z 29007KT 260V320 9999 FEW026 SCT059 18/12 Q1014 RMK 181 068 3/1=
METAR EPDE 181000Z 30008KT 9999 SCT040 21/09 Q1013 RMK 209 045 4/4=
METAR EPIR 181000Z VRB02KT CAVOK 22/08 Q1013 RMK 219 041 3/3=
METAR EPKS 181000Z VRB03KT CAVOK 24/08 Q1013 RMK 243 036 3/3=
METAR EPLK 181000Z 33007KT 240V030 9999 BKN060 22/07 Q1013 RMK 215 040 5/5=
METAR EPLY 181000Z VRB02KT CAVOK 22/08 Q1013 RMK 223 041 4/4=
METAR EPMB 181000Z VRB05KT 9999 BKN040 22/13 Q1013 RMK 216 057 5/5=
METAR EPMI 181000Z VRB03KT 9999 FEW038 21/07 Q1014 RMK 208 041 2/2=
METAR EPMM 181000Z 33008KT 280V340 9999 SCT033 20/11 Q1013 RMK 202 056 4/4=
METAR EPNA 181000Z VRB02KT 9999 SCT033 22/07 Q1014 RMK 220 031 3/3=
METAR EPOK 181000Z 04007KT 350V090 9999 SCT050 18/13 Q1014 RMK 180 072 4/4=
METAR EPPR 181000Z 06002KT 9999 SCT040 20/10 Q1013 RMK 204 052 3/3=
METAR EPPW 181000Z VRB02KT CAVOK 23/08 Q1013 RMK 234 036 3/3=
METAR EPSN 181000Z VRB02KT 9999 SCT040 20/08 Q1013 RMK 197 046 3/3=
METAR EPTM 181000Z 34002KT 9999 BKN050 21/07 Q1014 RMK 212 040 5/5=


 

Prawa autorskie©2007 SSH SZ RP. Wszelkie prawa zastrzeżone.